createdAt,value
2016-08-10T00:00:28.403Z,13.28
2016-08-10T00:01:29.147Z,13.16
2016-08-10T00:02:29.131Z,13.27
2016-08-10T00:03:28.407Z,13.17
2016-08-10T00:04:29.130Z,13.12
2016-08-10T00:05:28.408Z,13.2
2016-08-10T00:06:29.171Z,13.23
2016-08-10T00:08:29.136Z,13.28
2016-08-10T00:09:29.120Z,13.16
2016-08-10T00:10:27.690Z,13.3
2016-08-10T00:11:28.404Z,13.21
2016-08-10T00:12:27.675Z,13.26
2016-08-10T00:13:29.124Z,13.2
2016-08-10T00:14:29.144Z,13.24
2016-08-10T00:15:29.114Z,13.19
2016-08-10T00:16:29.123Z,13.16
2016-08-10T00:17:29.123Z,13.26
2016-08-10T00:18:28.404Z,13.2
2016-08-10T00:19:29.123Z,13.17
2016-08-10T00:20:29.120Z,13.16
2016-08-10T00:21:28.396Z,13.17
2016-08-10T00:23:28.389Z,13.17
2016-08-10T00:24:29.115Z,13.03
2016-08-10T00:25:28.403Z,13.12
2016-08-10T00:26:29.107Z,13.13
2016-08-10T00:27:29.112Z,13.06
2016-08-10T00:28:29.108Z,13.06
2016-08-10T00:29:28.391Z,13.09
2016-08-10T00:30:29.112Z,13.11
2016-08-10T00:31:29.112Z,13.08
2016-08-10T00:32:28.387Z,13.02
2016-08-10T00:33:29.101Z,13.09
2016-08-10T00:34:29.111Z,13.01
2016-08-10T00:35:29.108Z,13.03
2016-08-10T00:36:28.384Z,13.01
2016-08-10T00:37:28.383Z,13.01
2016-08-10T00:38:29.103Z,13.06
2016-08-10T00:39:28.396Z,13.02
2016-08-10T00:40:29.112Z,13.05
2016-08-10T00:41:27.668Z,13.05
2016-08-10T00:42:29.096Z,13.12
2016-08-10T00:43:28.372Z,13.09
2016-08-10T00:44:29.110Z,13.03
2016-08-10T00:45:28.372Z,13.06
2016-08-10T00:46:29.095Z,13.05
2016-08-10T00:47:29.104Z,13.11
2016-08-10T00:48:29.084Z,13.09
2016-08-10T00:49:29.100Z,13.17
2016-08-10T00:50:28.378Z,13.09
2016-08-10T00:51:29.092Z,13.23
2016-08-10T00:52:29.092Z,13.19
2016-08-10T00:53:29.096Z,13.12
2016-08-10T00:54:29.093Z,13.28
2016-08-10T00:55:29.093Z,13.28
2016-08-10T00:56:27.652Z,13.27
2016-08-10T00:57:28.382Z,13.19
2016-08-10T00:58:28.372Z,13.27
2016-08-10T00:59:29.092Z,13.2
2016-08-10T01:00:28.368Z,13.27
2016-08-10T01:01:29.093Z,13.24
2016-08-10T01:02:27.669Z,13.28
2016-08-10T01:03:28.369Z,13.4
2016-08-10T01:04:28.368Z,13.37
2016-08-10T01:05:27.642Z,13.37
2016-08-10T01:06:28.368Z,13.36
2016-08-10T01:07:28.369Z,13.39
2016-08-10T01:08:28.368Z,13.5
2016-08-10T01:09:29.085Z,13.45
2016-08-10T01:10:29.081Z,13.46
2016-08-10T01:11:29.077Z,13.4
2016-08-10T01:12:29.081Z,13.52
2016-08-10T01:13:29.082Z,13.52
2016-08-10T01:14:29.082Z,13.47
2016-08-10T01:15:28.349Z,13.49
2016-08-10T01:16:28.354Z,13.47
2016-08-10T01:17:28.358Z,13.54
2016-08-10T01:18:29.082Z,13.54
2016-08-10T01:19:28.358Z,13.57
2016-08-10T01:20:28.353Z,13.52
2016-08-10T01:21:28.358Z,13.6
2016-08-10T01:22:29.074Z,13.6
2016-08-10T01:23:27.629Z,13.61
2016-08-10T01:24:29.070Z,13.67
2016-08-10T01:25:28.353Z,13.64
2016-08-10T01:26:29.066Z,13.61
2016-08-10T01:27:29.074Z,13.68
2016-08-10T01:28:29.071Z,13.68
2016-08-10T01:29:28.351Z,13.7
2016-08-10T01:30:29.073Z,13.68
2016-08-10T01:31:28.354Z,13.76
2016-08-10T01:32:29.067Z,13.75
2016-08-10T01:33:28.346Z,13.65
2016-08-10T01:34:28.350Z,13.75
2016-08-10T01:35:28.347Z,13.76
2016-08-10T01:36:29.058Z,13.71
2016-08-10T01:37:29.071Z,13.75
2016-08-10T01:38:29.073Z,13.86
2016-08-10T01:39:27.623Z,13.82
2016-08-10T01:40:29.067Z,13.82
2016-08-10T01:41:28.334Z,13.73
2016-08-10T01:42:29.058Z,13.75
2016-08-10T01:43:29.062Z,13.8
2016-08-10T01:44:28.342Z,13.8
2016-08-10T01:45:28.335Z,13.82
2016-08-10T01:46:28.333Z,13.76
2016-08-10T01:47:29.059Z,13.79
2016-08-10T01:48:27.610Z,13.82
2016-08-10T01:49:28.343Z,13.79
2016-08-10T01:50:28.330Z,13.79
2016-08-10T01:51:29.050Z,13.76
2016-08-10T01:52:29.043Z,13.78
2016-08-10T01:53:29.051Z,13.87
2016-08-10T01:54:29.047Z,13.82
2016-08-10T01:55:29.055Z,13.78
2016-08-10T01:56:28.327Z,13.79
2016-08-10T01:57:28.326Z,13.8
2016-08-10T01:58:28.335Z,13.82
2016-08-10T01:59:29.043Z,13.78
2016-08-10T02:00:28.327Z,13.85
2016-08-10T02:01:28.322Z,13.76
2016-08-10T02:02:27.602Z,13.85
2016-08-10T02:03:29.039Z,13.8
2016-08-10T02:04:29.059Z,13.85
2016-08-10T02:05:29.039Z,13.78
2016-08-10T02:06:29.190Z,13.76
2016-08-10T02:07:27.603Z,13.79
2016-08-10T02:08:29.052Z,13.82
2016-08-10T02:09:28.316Z,13.75
2016-08-10T02:10:29.044Z,13.78
2016-08-10T02:11:28.324Z,13.79
2016-08-10T02:12:29.039Z,13.7
2016-08-10T02:13:27.591Z,13.76
2016-08-10T02:14:29.038Z,13.82
2016-08-10T02:15:28.316Z,13.73
2016-08-10T02:16:29.039Z,13.67
2016-08-10T02:17:28.312Z,13.75
2016-08-10T02:18:28.307Z,13.79
2016-08-10T02:19:29.036Z,13.73
2016-08-10T02:20:29.028Z,13.7
2016-08-10T02:21:28.311Z,13.75
2016-08-10T02:22:29.032Z,13.75
2016-08-10T02:23:29.028Z,13.8
2016-08-10T02:24:28.311Z,13.8
2016-08-10T02:25:28.304Z,13.71
2016-08-10T02:26:27.604Z,13.8
2016-08-10T02:27:28.303Z,13.75
2016-08-10T02:28:28.311Z,13.79
2016-08-10T02:29:28.305Z,13.79
2016-08-10T02:30:29.016Z,13.73
2016-08-10T02:31:29.017Z,13.71
2016-08-10T02:32:28.299Z,13.76
2016-08-10T02:33:29.023Z,13.73
2016-08-10T02:34:28.304Z,13.79
2016-08-10T02:35:29.020Z,13.73
2016-08-10T02:36:28.305Z,13.79
2016-08-10T02:37:29.012Z,13.82
2016-08-10T02:38:29.019Z,13.78
2016-08-10T02:39:29.012Z,13.76
2016-08-10T02:40:28.300Z,13.82
2016-08-10T02:41:29.021Z,13.82
2016-08-10T02:42:28.297Z,13.83
2016-08-10T02:43:29.016Z,13.71
2016-08-10T02:44:29.029Z,13.8
2016-08-10T02:45:28.285Z,13.73
2016-08-10T02:46:29.021Z,13.71
2016-08-10T02:47:28.289Z,13.73
2016-08-10T02:48:28.292Z,13.73
2016-08-10T02:49:29.020Z,13.78
2016-08-10T02:50:28.293Z,13.71
2016-08-10T02:51:29.009Z,13.73
2016-08-10T02:52:28.285Z,13.73
2016-08-10T02:53:28.290Z,13.73
2016-08-10T02:54:28.280Z,13.8
2016-08-10T02:55:29.005Z,13.75
2016-08-10T02:56:28.281Z,13.79
2016-08-10T02:57:29.001Z,13.82
2016-08-10T02:58:27.565Z,13.75
2016-08-10T02:59:29.001Z,13.75
2016-08-10T03:00:27.569Z,13.78
2016-08-10T03:01:29.013Z,13.79
2016-08-10T03:02:27.566Z,13.78
2016-08-10T03:03:29.001Z,13.73
2016-08-10T03:04:29.000Z,13.79
2016-08-10T03:05:29.001Z,13.76
2016-08-10T03:06:28.282Z,13.85
2016-08-10T03:07:28.997Z,13.83
2016-08-10T03:08:28.282Z,13.87
2016-08-10T03:09:29.001Z,13.94
2016-08-10T03:10:29.001Z,13.93
2016-08-10T03:11:29.005Z,13.82
2016-08-10T03:12:28.989Z,13.85
2016-08-10T03:13:28.990Z,13.79
2016-08-10T03:14:29.001Z,13.89
2016-08-10T03:15:28.993Z,13.78
2016-08-10T03:16:29.001Z,13.82
2016-08-10T03:17:28.273Z,13.78
2016-08-10T03:18:28.986Z,13.78
2016-08-10T03:19:28.277Z,13.78
2016-08-10T03:20:28.265Z,13.8
2016-08-10T03:21:28.274Z,13.73
2016-08-10T03:22:28.990Z,13.76
2016-08-10T03:24:28.986Z,13.8
2016-08-10T03:25:28.982Z,13.8
2016-08-10T03:26:28.980Z,13.82
2016-08-10T03:27:28.986Z,13.86
2016-08-10T03:28:27.544Z,13.8
2016-08-10T03:29:29.002Z,13.83
2016-08-10T03:30:28.987Z,13.8
2016-08-10T03:31:28.977Z,13.83
2016-08-10T03:32:28.261Z,13.76
2016-08-10T03:33:28.269Z,13.78
2016-08-10T03:34:28.254Z,13.73
2016-08-10T03:35:28.973Z,13.79
2016-08-10T03:36:28.258Z,13.79
2016-08-10T03:37:27.534Z,13.82
2016-08-10T03:39:28.262Z,13.91
2016-08-10T03:40:28.975Z,13.73
2016-08-10T03:41:28.257Z,13.75
2016-08-10T03:42:28.250Z,13.73
2016-08-10T03:43:28.980Z,13.78
2016-08-10T03:44:28.974Z,13.73
2016-08-10T03:45:28.970Z,13.8
2016-08-10T03:46:28.966Z,13.76
2016-08-10T03:47:28.965Z,13.73
2016-08-10T03:48:28.970Z,13.75
2016-08-10T03:49:28.970Z,13.65
2016-08-10T03:50:28.248Z,13.75
2016-08-10T03:51:28.970Z,13.73
2016-08-10T03:52:28.966Z,13.73
2016-08-10T03:54:28.241Z,13.73
2016-08-10T03:55:28.966Z,13.68
2016-08-10T03:56:28.970Z,13.61
2016-08-10T03:57:28.255Z,13.65
2016-08-10T03:58:27.527Z,13.62
2016-08-10T03:59:28.958Z,13.68
2016-08-10T04:00:28.238Z,13.57
2016-08-10T04:01:28.249Z,13.58
2016-08-10T04:02:28.246Z,13.64
2016-08-10T04:03:28.234Z,13.55
2016-08-10T04:04:28.954Z,13.55
2016-08-10T04:05:28.951Z,13.58
2016-08-10T04:06:29.050Z,13.58
2016-08-10T04:07:28.235Z,13.61
2016-08-10T04:09:28.238Z,13.64
2016-08-10T04:10:28.229Z,13.61
2016-08-10T04:11:28.235Z,13.68
2016-08-10T04:12:28.947Z,13.62
2016-08-10T04:13:28.959Z,13.6
2016-08-10T04:14:28.951Z,13.67
2016-08-10T04:15:28.230Z,13.64
2016-08-10T04:16:28.226Z,13.75
2016-08-10T04:17:28.943Z,13.7
2016-08-10T04:18:28.231Z,13.71
2016-08-10T04:19:28.228Z,13.83
2016-08-10T04:20:28.227Z,13.8
2016-08-10T04:21:28.955Z,13.73
2016-08-10T04:22:28.951Z,13.82
2016-08-10T04:24:28.240Z,13.82
2016-08-10T04:25:28.219Z,13.75
2016-08-10T04:26:28.944Z,13.73
2016-08-10T04:27:28.231Z,13.73
2016-08-10T04:28:28.952Z,13.73
2016-08-10T04:29:28.958Z,13.7
2016-08-10T04:30:28.951Z,13.68
2016-08-10T04:31:28.939Z,13.73
2016-08-10T04:32:28.948Z,13.71
2016-08-10T04:33:28.936Z,13.65
2016-08-10T04:34:28.228Z,13.65
2016-08-10T04:35:28.216Z,13.64
2016-08-10T04:36:28.220Z,13.65
2016-08-10T04:37:28.940Z,13.7
2016-08-10T04:39:28.220Z,13.7
2016-08-10T04:40:28.940Z,13.78
2016-08-10T04:41:28.940Z,13.8
2016-08-10T04:42:28.209Z,13.82
2016-08-10T04:43:28.936Z,13.83
2016-08-10T04:44:28.940Z,13.85
2016-08-10T04:45:28.220Z,13.83
2016-08-10T04:46:28.215Z,13.93
2016-08-10T04:47:28.217Z,13.97
2016-08-10T04:48:28.933Z,14
2016-08-10T04:49:28.937Z,13.95
2016-08-10T04:50:28.929Z,14.05
2016-08-10T04:51:28.928Z,14.12
2016-08-10T04:52:28.205Z,14.12
2016-08-10T04:53:28.921Z,14.18
2016-08-10T04:54:28.200Z,14.3
2016-08-10T04:55:28.917Z,14.22
2016-08-10T04:56:28.200Z,14.31
2016-08-10T04:57:28.212Z,14.36
2016-08-10T04:58:28.925Z,14.3
2016-08-10T04:59:27.481Z,14.31
2016-08-10T05:00:28.930Z,14.34
2016-08-10T05:01:28.926Z,14.37
2016-08-10T05:02:28.921Z,14.41
2016-08-10T05:03:28.917Z,14.44
2016-08-10T05:04:28.201Z,14.49
2016-08-10T05:05:28.924Z,14.48
2016-08-10T05:06:28.912Z,14.48
2016-08-10T05:07:28.921Z,14.53
2016-08-10T05:08:28.921Z,14.68
2016-08-10T05:09:28.201Z,14.77
2016-08-10T05:10:28.917Z,14.74
2016-08-10T05:11:28.920Z,14.81
2016-08-10T05:12:28.909Z,14.93
2016-08-10T05:13:28.194Z,14.97
2016-08-10T05:14:28.913Z,14.99
2016-08-10T05:15:28.917Z,15.07
2016-08-10T05:16:28.918Z,15.11
2016-08-10T05:17:28.913Z,15.14
2016-08-10T05:18:28.920Z,15.05
2016-08-10T05:19:28.908Z,15.14
2016-08-10T05:20:28.909Z,15.08
2016-08-10T05:21:28.198Z,15.12
2016-08-10T05:22:28.909Z,15.14
2016-08-10T05:23:28.913Z,15.12
2016-08-10T05:24:28.910Z,15.1
2016-08-10T05:25:28.904Z,15.14
2016-08-10T05:26:28.916Z,15.07
2016-08-10T05:27:28.185Z,15.05
2016-08-10T05:28:28.901Z,14.99
2016-08-10T05:29:28.185Z,15
2016-08-10T05:30:28.898Z,15.02
2016-08-10T05:31:28.910Z,15.05
2016-08-10T05:32:28.173Z,15.05
2016-08-10T05:33:28.906Z,15.04
2016-08-10T05:34:28.185Z,15.11
2016-08-10T05:35:28.190Z,15.1
2016-08-10T05:36:28.957Z,15.11
2016-08-10T05:37:28.909Z,15.07
2016-08-10T05:38:28.902Z,15.1
2016-08-10T05:39:28.902Z,15.15
2016-08-10T05:40:28.181Z,15.12
2016-08-10T05:41:28.174Z,15.04
2016-08-10T05:42:28.282Z,15.14
2016-08-10T05:43:28.889Z,15.12
2016-08-10T05:44:28.906Z,15.12
2016-08-10T05:45:28.187Z,15.19
2016-08-10T05:46:27.453Z,15.12
2016-08-10T05:47:28.893Z,15.22
2016-08-10T05:48:28.911Z,15.26
2016-08-10T05:49:27.459Z,15.19
2016-08-10T05:50:27.458Z,15.32
2016-08-10T05:51:28.893Z,15.29
2016-08-10T05:52:28.895Z,15.45
2016-08-10T05:53:28.895Z,15.37
2016-08-10T05:54:28.178Z,15.48
2016-08-10T05:55:28.174Z,15.43
2016-08-10T05:56:28.174Z,15.54
2016-08-10T05:57:28.890Z,15.59
2016-08-10T05:58:28.170Z,15.65
2016-08-10T05:59:28.175Z,15.8
2016-08-10T06:00:28.911Z,15.85
2016-08-10T06:01:28.166Z,15.9
2016-08-10T06:02:28.174Z,16.02
2016-08-10T06:03:28.891Z,16.13
2016-08-10T06:04:28.882Z,16.24
2016-08-10T06:05:28.170Z,16.29
2016-08-10T06:06:28.219Z,16.4
2016-08-10T06:07:28.171Z,16.47
2016-08-10T06:08:28.886Z,16.54
2016-08-10T06:09:28.890Z,16.58
2016-08-10T06:10:28.163Z,16.68
2016-08-10T06:11:28.887Z,16.61
2016-08-10T06:12:28.882Z,16.69
2016-08-10T06:13:28.167Z,16.65
2016-08-10T06:14:28.890Z,16.76
2016-08-10T06:15:28.175Z,16.8
2016-08-10T06:16:28.159Z,16.66
2016-08-10T06:17:28.891Z,16.77
2016-08-10T06:18:28.160Z,16.65
2016-08-10T06:19:28.175Z,16.74
2016-08-10T06:20:28.891Z,16.77
2016-08-10T06:21:28.173Z,16.77
2016-08-10T06:22:28.895Z,16.76
2016-08-10T06:23:28.164Z,16.84
2016-08-10T06:24:28.171Z,16.84
2016-08-10T06:25:28.888Z,16.89
2016-08-10T06:26:28.159Z,16.87
2016-08-10T06:27:28.883Z,16.94
2016-08-10T06:28:28.886Z,16.97
2016-08-10T06:29:27.447Z,17.07
2016-08-10T06:30:28.883Z,17.1
2016-08-10T06:31:28.170Z,17.07
2016-08-10T06:32:28.173Z,17.16
2016-08-10T06:33:28.891Z,17.28
2016-08-10T06:34:28.887Z,17.28
2016-08-10T06:35:28.159Z,17.34
2016-08-10T06:36:28.891Z,17.35
2016-08-10T06:37:28.884Z,17.38
2016-08-10T06:38:28.164Z,17.39
2016-08-10T06:39:28.897Z,17.46
2016-08-10T06:40:28.171Z,17.54
2016-08-10T06:41:28.160Z,17.66
2016-08-10T06:42:28.883Z,17.71
2016-08-10T06:43:28.160Z,17.71
2016-08-10T06:44:28.883Z,17.8
2016-08-10T06:45:28.184Z,17.9
2016-08-10T06:46:27.448Z,17.88
2016-08-10T06:47:28.892Z,17.93
2016-08-10T06:48:27.451Z,17.9
2016-08-10T06:49:28.896Z,17.97
2016-08-10T06:50:28.889Z,18.08
2016-08-10T06:51:28.896Z,18.11
2016-08-10T06:52:28.888Z,18.15
2016-08-10T06:53:28.896Z,18.11
2016-08-10T06:54:28.165Z,18.15
2016-08-10T06:55:28.896Z,18.09
2016-08-10T06:56:28.893Z,18.11
2016-08-10T06:57:28.892Z,18.11
2016-08-10T06:58:28.900Z,18.02
2016-08-10T06:59:28.892Z,17.94
2016-08-10T07:00:28.168Z,17.95
2016-08-10T07:01:28.889Z,17.95
2016-08-10T07:02:28.172Z,17.8
2016-08-10T07:03:28.880Z,17.84
2016-08-10T07:04:28.885Z,17.76
2016-08-10T07:05:28.169Z,17.87
2016-08-10T07:06:28.892Z,17.87
2016-08-10T07:07:28.893Z,17.9
2016-08-10T07:08:28.902Z,17.9
2016-08-10T07:09:28.213Z,17.98
2016-08-10T07:10:28.185Z,17.95
2016-08-10T07:11:28.886Z,17.94
2016-08-10T07:12:28.172Z,17.95
2016-08-10T07:13:28.181Z,17.84
2016-08-10T07:14:28.901Z,17.87
2016-08-10T07:15:28.173Z,17.68
2016-08-10T07:16:28.893Z,17.72
2016-08-10T07:17:28.177Z,17.72
2016-08-10T07:18:28.893Z,17.65
2016-08-10T07:19:28.186Z,17.65
2016-08-10T07:20:28.177Z,17.69
2016-08-10T07:21:28.181Z,17.69
2016-08-10T07:22:27.458Z,17.8
2016-08-10T07:23:28.178Z,17.93
2016-08-10T07:25:28.178Z,18.15
2016-08-10T07:26:28.178Z,18.3
2016-08-10T07:27:28.899Z,18.42
2016-08-10T07:28:28.898Z,18.45
2016-08-10T07:29:28.183Z,18.53
2016-08-10T07:30:27.454Z,18.58
2016-08-10T07:31:28.914Z,18.66
2016-08-10T07:32:28.187Z,18.66
2016-08-10T07:33:28.902Z,18.73
2016-08-10T07:34:28.177Z,18.67
2016-08-10T07:35:28.914Z,18.71
2016-08-10T07:36:28.934Z,18.81
2016-08-10T07:37:28.909Z,18.79
2016-08-10T07:38:28.183Z,18.83
2016-08-10T07:40:28.203Z,18.97
2016-08-10T07:41:28.197Z,18.86
2016-08-10T07:42:28.910Z,18.91
2016-08-10T07:43:27.474Z,18.88
2016-08-10T07:44:28.914Z,18.91
2016-08-10T07:45:28.194Z,18.94
2016-08-10T07:46:28.915Z,18.85
2016-08-10T07:47:28.186Z,18.92
2016-08-10T07:48:28.199Z,18.98
2016-08-10T07:49:28.182Z,18.97
2016-08-10T07:50:28.915Z,19.04
2016-08-10T07:51:28.926Z,18.98
2016-08-10T07:52:28.198Z,19.29
2016-08-10T07:53:28.917Z,19.26
2016-08-10T07:55:28.918Z,19.44
2016-08-10T07:56:28.915Z,19.32
2016-08-10T07:57:28.198Z,19.35
2016-08-10T07:58:28.926Z,19.29
2016-08-10T07:59:28.918Z,19.34
2016-08-10T08:00:28.199Z,19.27
2016-08-10T08:01:28.923Z,19.23
2016-08-10T08:02:28.211Z,19.16
2016-08-10T08:03:28.199Z,19.19
2016-08-10T08:04:28.923Z,19.16
2016-08-10T08:05:28.921Z,19.15
2016-08-10T08:06:29.028Z,19.11
2016-08-10T08:07:28.942Z,19.04
2016-08-10T08:08:28.930Z,19.04
2016-08-10T08:10:28.210Z,18.86
2016-08-10T08:11:28.214Z,18.78
2016-08-10T08:12:28.936Z,18.67
2016-08-10T08:13:27.491Z,18.76
2016-08-10T08:14:28.935Z,18.78
2016-08-10T08:15:28.934Z,18.71
2016-08-10T08:16:27.490Z,18.66
2016-08-10T08:17:28.926Z,18.68
2016-08-10T08:18:28.218Z,18.81
2016-08-10T08:19:28.953Z,18.7
2016-08-10T08:20:28.939Z,18.85
2016-08-10T08:21:28.935Z,18.96
2016-08-10T08:22:28.932Z,19.19
2016-08-10T08:23:28.939Z,19.49
2016-08-10T08:25:28.943Z,19.93
2016-08-10T08:26:28.951Z,20.21
2016-08-10T08:27:28.227Z,20.46
2016-08-10T08:28:27.507Z,20.74
2016-08-10T08:29:28.231Z,21.14
2016-08-10T08:30:28.953Z,21.62
2016-08-10T08:31:27.523Z,22.28
2016-08-10T08:32:28.947Z,23.06
2016-08-10T08:33:28.947Z,23.79
2016-08-10T08:34:28.959Z,24.4
2016-08-10T08:35:28.959Z,24.75
2016-08-10T08:36:28.235Z,25.22
2016-08-10T08:37:28.955Z,25.71
2016-08-10T08:38:28.955Z,26.1
2016-08-10T08:40:28.959Z,26.89
2016-08-10T08:41:28.968Z,27.53
2016-08-10T08:42:28.245Z,28.4
2016-08-10T08:43:28.963Z,28.94
2016-08-10T08:44:28.251Z,29.4
2016-08-10T08:45:28.964Z,29.86
2016-08-10T08:46:28.968Z,30.03
2016-08-10T08:47:28.259Z,30.17
2016-08-10T08:48:28.980Z,30.29
2016-08-10T08:49:28.273Z,30.32
2016-08-10T08:50:27.543Z,30.67
2016-08-10T08:51:28.993Z,31.37
2016-08-10T08:52:28.276Z,32.07
2016-08-10T08:53:27.552Z,32.85
2016-08-10T08:55:28.279Z,34.04
2016-08-10T08:56:28.996Z,34.03
2016-08-10T08:57:28.284Z,33.72
2016-08-10T08:58:28.283Z,33.08
2016-08-10T08:59:28.285Z,32.3
2016-08-10T09:00:28.288Z,31.59
2016-08-10T09:01:28.300Z,30.67
2016-08-10T09:02:29.020Z,29.61
2016-08-10T09:03:28.291Z,28.55
2016-08-10T09:04:29.017Z,27.67
2016-08-10T09:05:29.029Z,26.79
2016-08-10T09:06:29.040Z,26.1
2016-08-10T09:07:29.033Z,25.51
2016-08-10T09:08:29.032Z,24.99
2016-08-10T09:10:29.040Z,23.99
2016-08-10T09:11:29.045Z,23.7
2016-08-10T09:12:29.045Z,23.47
2016-08-10T09:13:28.328Z,23.18
2016-08-10T09:14:29.042Z,22.99
2016-08-10T09:15:29.052Z,22.84
2016-08-10T09:16:28.324Z,22.8
2016-08-10T09:17:28.337Z,22.59
2016-08-10T09:18:29.052Z,22.49
2016-08-10T09:19:27.617Z,22.43
2016-08-10T09:20:29.068Z,22.33
2016-08-10T09:21:28.344Z,22.25
2016-08-10T09:22:28.344Z,22.21
2016-08-10T09:23:29.064Z,22.07
2016-08-10T09:24:28.349Z,22.07
2016-08-10T09:25:28.344Z,22.07
2016-08-10T09:26:29.091Z,22.07
2016-08-10T09:27:29.077Z,22.12
2016-08-10T09:28:28.361Z,22.12
2016-08-10T09:29:28.361Z,22.23
2016-08-10T09:30:28.365Z,22.23
2016-08-10T09:31:28.369Z,22.3
2016-08-10T09:32:28.369Z,22.34
2016-08-10T09:33:29.098Z,22.26
2016-08-10T09:34:28.374Z,22.06
2016-08-10T09:35:27.653Z,22.21
2016-08-10T09:36:29.092Z,22.22
2016-08-10T09:37:29.093Z,22.31
2016-08-10T09:38:28.390Z,22.3
2016-08-10T09:39:28.385Z,22.25
2016-08-10T09:40:29.106Z,22.34
2016-08-10T09:41:29.118Z,22.19
2016-08-10T09:42:28.390Z,21.96
2016-08-10T09:43:27.669Z,21.65
2016-08-10T09:44:28.402Z,21.3
2016-08-10T09:45:28.391Z,21.08
2016-08-10T09:46:28.391Z,20.9
2016-08-10T09:47:28.394Z,20.93
2016-08-10T09:48:28.402Z,20.89
2016-08-10T09:49:28.395Z,20.98
2016-08-10T09:50:28.481Z,21.07
2016-08-10T09:51:29.134Z,21.25
2016-08-10T09:52:29.146Z,21.4
2016-08-10T09:53:29.130Z,21.5
2016-08-10T09:54:29.138Z,21.59
2016-08-10T09:55:28.415Z,21.63
2016-08-10T09:56:29.143Z,21.63
2016-08-10T09:57:29.146Z,21.51
2016-08-10T09:58:28.418Z,21.53
2016-08-10T09:59:28.418Z,21.6
2016-08-10T10:00:29.150Z,21.66
2016-08-10T10:01:28.427Z,21.8
2016-08-10T10:02:27.710Z,21.8
2016-08-10T10:03:29.163Z,21.77
2016-08-10T10:04:29.152Z,21.69
2016-08-10T10:05:27.718Z,21.6
2016-08-10T10:06:29.302Z,21.44
2016-08-10T10:07:29.163Z,21.33
2016-08-10T10:08:28.443Z,21.23
2016-08-10T10:09:28.447Z,21.25
2016-08-10T10:10:28.451Z,21.14
2016-08-10T10:11:27.733Z,21.11
2016-08-10T10:12:27.723Z,21.08
2016-08-10T10:13:29.175Z,21.15
2016-08-10T10:14:28.451Z,21.08
2016-08-10T10:15:29.183Z,21.13
2016-08-10T10:16:27.750Z,21.11
2016-08-10T10:17:29.194Z,21.08
2016-08-10T10:18:29.187Z,21.11
2016-08-10T10:19:29.183Z,21.07
2016-08-10T10:20:29.211Z,21.04
2016-08-10T10:21:29.191Z,21.05
2016-08-10T10:22:29.196Z,21.04
2016-08-10T10:23:29.195Z,21
2016-08-10T10:24:29.196Z,21.13
2016-08-10T10:25:27.756Z,21.25
2016-08-10T10:26:28.491Z,21.3
2016-08-10T10:27:29.203Z,21.28
2016-08-10T10:28:29.207Z,21.29
2016-08-10T10:29:29.207Z,21.26
2016-08-10T10:30:28.483Z,21.35
2016-08-10T10:31:29.211Z,21.38
2016-08-10T10:32:29.211Z,21.48
2016-08-10T10:33:29.219Z,21.66
2016-08-10T10:34:29.229Z,21.75
2016-08-10T10:35:27.794Z,21.69
2016-08-10T10:36:29.228Z,21.75
2016-08-10T10:37:29.250Z,21.89
2016-08-10T10:38:28.507Z,21.83
2016-08-10T10:39:28.507Z,21.89
2016-08-10T10:40:28.507Z,22.04
2016-08-10T10:41:29.231Z,22.1
2016-08-10T10:42:28.519Z,22.19
2016-08-10T10:43:28.515Z,22.31
2016-08-10T10:44:28.519Z,22.21
2016-08-10T10:45:29.244Z,22.26
2016-08-10T10:46:27.800Z,22.36
2016-08-10T10:47:28.531Z,22.19
2016-08-10T10:48:28.531Z,22.07
2016-08-10T10:49:28.535Z,21.81
2016-08-10T10:50:28.538Z,21.58
2016-08-10T10:51:29.255Z,21.47
2016-08-10T10:52:29.264Z,21.26
2016-08-10T10:53:28.540Z,20.93
2016-08-10T10:54:28.544Z,20.82
2016-08-10T10:55:29.264Z,20.67
2016-08-10T10:56:28.548Z,20.63
2016-08-10T10:57:29.273Z,20.64
2016-08-10T10:58:29.276Z,20.34
2016-08-10T10:59:28.561Z,20.22
2016-08-10T11:00:29.288Z,20.1
2016-08-10T11:01:28.576Z,20.04
2016-08-10T11:02:29.277Z,19.93
2016-08-10T11:03:28.556Z,19.84
2016-08-10T11:04:28.568Z,19.93
2016-08-10T11:05:29.296Z,19.85
2016-08-10T11:06:28.572Z,19.79
2016-08-10T11:07:27.853Z,19.79
2016-08-10T11:08:29.301Z,19.89
2016-08-10T11:09:28.577Z,19.82
2016-08-10T11:10:28.577Z,19.89
2016-08-10T11:11:28.581Z,19.92
2016-08-10T11:12:29.322Z,19.87
2016-08-10T11:13:29.303Z,19.84
2016-08-10T11:14:29.305Z,19.64
2016-08-10T11:15:28.589Z,19.57
2016-08-10T11:16:28.589Z,19.48
2016-08-10T11:17:29.309Z,19.37
2016-08-10T11:18:27.877Z,19.01
2016-08-10T11:19:28.596Z,18.79
2016-08-10T11:20:28.617Z,18.73
2016-08-10T11:21:29.320Z,18.7
2016-08-10T11:22:29.321Z,18.79
2016-08-10T11:23:28.604Z,18.81
2016-08-10T11:24:28.592Z,18.81
2016-08-10T11:25:28.602Z,18.89
2016-08-10T11:26:28.613Z,18.86
2016-08-10T11:27:27.893Z,18.68
2016-08-10T11:28:29.343Z,18.7
2016-08-10T11:29:28.617Z,18.7
2016-08-10T11:30:28.613Z,18.78
2016-08-10T11:31:28.617Z,18.71
2016-08-10T11:32:28.616Z,18.73
2016-08-10T11:33:29.343Z,18.57
2016-08-10T11:34:29.345Z,18.37
2016-08-10T11:35:27.909Z,18.33
2016-08-10T11:36:29.356Z,18.18
2016-08-10T11:37:28.641Z,18.06
2016-08-10T11:38:29.357Z,17.93
2016-08-10T11:39:29.354Z,17.9
2016-08-10T11:40:29.358Z,17.75
2016-08-10T11:41:28.633Z,17.69
2016-08-10T11:42:29.362Z,17.66
2016-08-10T11:43:27.925Z,17.73
2016-08-10T11:44:29.365Z,17.9
2016-08-10T11:45:29.373Z,18.03
2016-08-10T11:46:28.649Z,18.09
2016-08-10T11:47:29.373Z,18.28
2016-08-10T11:48:29.370Z,18.39
2016-08-10T11:49:28.653Z,18.51
2016-08-10T11:50:29.381Z,18.71
2016-08-10T11:51:29.377Z,18.74
2016-08-10T11:52:29.026Z,18.78
2016-08-10T11:53:29.385Z,18.74
2016-08-10T11:54:29.387Z,18.66
2016-08-10T11:55:28.669Z,18.78
2016-08-10T11:56:28.670Z,18.68
2016-08-10T11:57:29.390Z,18.66
2016-08-10T11:58:29.390Z,18.55
2016-08-10T11:59:28.669Z,18.46
2016-08-10T12:00:29.401Z,18.36
2016-08-10T12:01:29.402Z,18.24
2016-08-10T12:02:29.406Z,18.05
2016-08-10T12:03:29.398Z,17.95
2016-08-10T12:04:29.405Z,17.95
2016-08-10T12:05:29.401Z,17.8
2016-08-10T12:06:28.738Z,17.76
2016-08-10T12:07:28.686Z,17.6
2016-08-10T12:08:27.973Z,17.44
2016-08-10T12:09:28.690Z,17.35
2016-08-10T12:10:28.494Z,17.3
2016-08-10T12:11:28.710Z,17.34
2016-08-10T12:12:28.700Z,17.35
2016-08-10T12:13:28.774Z,17.35
2016-08-10T12:14:28.702Z,17.44
2016-08-10T12:15:29.418Z,17.52
2016-08-10T12:16:28.706Z,17.47
2016-08-10T12:17:29.419Z,17.52
2016-08-10T12:18:29.422Z,17.66
2016-08-10T12:19:29.419Z,17.59
2016-08-10T12:20:28.710Z,17.65
2016-08-10T12:21:28.705Z,17.54
2016-08-10T12:22:29.431Z,17.47
2016-08-10T12:23:28.719Z,17.41
2016-08-10T12:24:28.710Z,17.37
2016-08-10T12:25:28.247Z,17.34
2016-08-10T12:26:29.442Z,17.38
2016-08-10T12:27:28.719Z,17.41
2016-08-10T12:28:29.435Z,17.53
2016-08-10T12:29:29.447Z,17.66
2016-08-10T12:30:29.454Z,17.72
2016-08-10T12:31:28.722Z,17.9
2016-08-10T12:32:29.434Z,18.08
2016-08-10T12:33:29.442Z,18.21
2016-08-10T12:34:28.003Z,18.28
2016-08-10T12:35:28.727Z,18.36
2016-08-10T12:36:28.735Z,18.33
2016-08-10T12:37:28.731Z,18.36
2016-08-10T12:38:28.731Z,18.31
2016-08-10T12:39:28.735Z,18.18
2016-08-10T12:41:28.735Z,18.12
2016-08-10T12:42:29.451Z,18.12
2016-08-10T12:43:28.743Z,18.23
2016-08-10T12:44:29.463Z,18.11
2016-08-10T12:45:29.454Z,17.95
2016-08-10T12:46:29.471Z,17.98
2016-08-10T12:47:29.463Z,18.02
2016-08-10T12:48:29.472Z,18.09
2016-08-10T12:49:29.468Z,18.11
2016-08-10T12:50:29.484Z,18.18
2016-08-10T12:51:29.479Z,18.06
2016-08-10T12:52:28.753Z,18
2016-08-10T12:53:28.756Z,17.93
2016-08-10T12:54:28.768Z,17.98
2016-08-10T12:56:28.760Z,17.97
2016-08-10T12:57:28.759Z,17.79
2016-08-10T12:58:28.760Z,17.71
2016-08-10T12:59:29.500Z,17.46
2016-08-10T13:00:29.484Z,17.37
2016-08-10T13:01:28.764Z,17.24
2016-08-10T13:02:29.500Z,17.16
2016-08-10T13:03:29.504Z,17.09
2016-08-10T13:04:29.500Z,17.01
2016-08-10T13:05:28.784Z,17.14
2016-08-10T13:06:28.048Z,17.16
2016-08-10T13:07:29.484Z,17.2
2016-08-10T13:08:29.508Z,17.24
2016-08-10T13:09:28.776Z,17.28
2016-08-10T13:11:28.779Z,17.23
2016-08-10T13:12:28.782Z,17.31
2016-08-10T13:13:28.784Z,17.3
2016-08-10T13:14:28.789Z,17.24